createdAt,value
2018-01-10T00:00:11.087Z,98431.25
2018-01-10T00:02:41.838Z,98433.52
2018-01-10T00:05:13.647Z,98428.75
2018-01-10T00:07:44.562Z,98423.82
2018-01-10T00:10:17.185Z,98422.83
2018-01-10T00:12:49.102Z,98426.62
2018-01-10T00:15:20.079Z,98435.60
2018-01-10T00:17:51.189Z,98442.91
2018-01-10T00:20:22.219Z,98447.27
2018-01-10T00:22:55.374Z,98445.59
2018-01-10T00:25:26.830Z,98441.09
2018-01-10T00:27:57.435Z,98439.34
2018-01-10T00:30:28.615Z,98439.98
2018-01-10T00:32:59.530Z,98433.52
2018-01-10T00:35:30.374Z,98440.10
2018-01-10T00:38:01.780Z,98444.13
2018-01-10T00:40:33.051Z,98437.49
2018-01-10T00:43:03.807Z,98426.55
2018-01-10T00:45:34.894Z,98432.09
2018-01-10T00:48:05.839Z,98435.75
2018-01-10T00:50:36.590Z,98435.48
2018-01-10T00:53:08.194Z,98436.20
2018-01-10T00:55:39.153Z,98419.16
2018-01-10T00:58:10.477Z,98421.63
2018-01-10T01:00:42.379Z,98423.87
2018-01-10T01:03:13.686Z,98424.48
2018-01-10T01:05:44.526Z,98424.55
2018-01-10T01:08:15.271Z,98422.80
2018-01-10T01:10:45.942Z,98423.39
2018-01-10T01:13:16.934Z,98417.03
2018-01-10T01:15:47.896Z,98414.98
2018-01-10T01:18:19.112Z,98414.00
2018-01-10T01:20:51.297Z,98416.05
2018-01-10T01:23:22.023Z,98421.97
2018-01-10T01:25:52.787Z,98421.95
2018-01-10T01:28:24.203Z,98419.81
2018-01-10T01:30:55.718Z,98422.02
2018-01-10T01:33:27.946Z,98421.01
2018-01-10T01:35:58.669Z,98418.75
2018-01-10T01:38:29.495Z,98413.36
2018-01-10T01:41:00.978Z,98416.51
2018-01-10T01:43:31.703Z,98407.21
2018-01-10T01:46:02.947Z,98405.53
2018-01-10T01:48:33.987Z,98403.41
2018-01-10T01:51:04.706Z,98404.20
2018-01-10T01:53:35.733Z,98405.08
2018-01-10T01:56:06.533Z,98404.11
2018-01-10T01:58:37.173Z,98410.96
2018-01-10T02:01:09.158Z,98401.37
2018-01-10T02:03:40.718Z,98405.91
2018-01-10T02:06:12.054Z,98406.50
2018-01-10T02:08:43.196Z,98403.93
2018-01-10T02:11:14.279Z,98402.44
2018-01-10T02:13:44.993Z,98401.60
2018-01-10T02:16:16.557Z,98388.65
2018-01-10T02:18:48.081Z,98388.30
2018-01-10T02:21:19.894Z,98382.07
2018-01-10T02:23:50.997Z,98380.34
2018-01-10T02:26:21.793Z,98381.22
2018-01-10T02:28:52.946Z,98377.27
2018-01-10T02:31:24.644Z,98383.33
2018-01-10T02:33:56.197Z,98382.54
2018-01-10T02:36:27.854Z,98383.18
2018-01-10T02:38:59.562Z,98373.22
2018-01-10T02:41:30.229Z,98366.56
2018-01-10T02:44:01.486Z,98358.37
2018-01-10T02:46:32.895Z,98362.61
2018-01-10T02:49:03.762Z,98362.30
2018-01-10T02:51:35.042Z,98363.58
2018-01-10T02:54:05.817Z,98367.30
2018-01-10T02:56:38.614Z,98364.59
2018-01-10T02:59:11.205Z,98361.83
2018-01-10T03:01:42.026Z,98364.98
2018-01-10T03:04:12.905Z,98360.27
2018-01-10T03:06:43.907Z,98361.56
2018-01-10T03:09:14.667Z,98360.41
2018-01-10T03:11:45.861Z,98359.10
2018-01-10T03:14:16.682Z,98367.96
2018-01-10T03:16:47.997Z,98367.34
2018-01-10T03:19:19.019Z,98357.00
2018-01-10T03:21:49.755Z,98354.39
2018-01-10T03:24:20.856Z,98358.55
2018-01-10T03:26:54.766Z,98362.33
2018-01-10T03:29:25.743Z,98353.42
2018-01-10T03:31:56.792Z,98353.00
2018-01-10T03:34:27.580Z,98352.37
2018-01-10T03:37:00.760Z,98345.52
2018-01-10T03:39:32.194Z,98345.38
2018-01-10T03:42:05.319Z,98347.39
2018-01-10T03:44:36.102Z,98350.45
2018-01-10T03:47:06.973Z,98351.89
2018-01-10T03:49:42.166Z,98341.78
2018-01-10T03:52:12.954Z,98351.05
2018-01-10T03:54:44.744Z,98348.06
2018-01-10T03:57:15.996Z,98360.62
2018-01-10T03:59:56.011Z,98359.42
2018-01-10T04:02:27.936Z,98362.00
2018-01-10T04:04:59.611Z,98357.26
2018-01-10T04:07:31.278Z,98359.60
2018-01-10T04:10:08.365Z,98364.97
2018-01-10T04:12:39.632Z,98363.81
2018-01-10T04:15:13.237Z,98375.20
2018-01-10T04:17:45.669Z,98375.16
2018-01-10T04:20:16.855Z,98381.34
2018-01-10T04:22:49.009Z,98377.66
2018-01-10T04:25:23.499Z,98381.53
2018-01-10T04:27:55.422Z,98380.50
2018-01-10T04:30:26.248Z,98381.73
2018-01-10T04:33:01.332Z,98382.02
2018-01-10T04:35:33.172Z,98373.94
2018-01-10T04:38:03.884Z,98368.25
2018-01-10T04:40:38.458Z,98369.34
2018-01-10T04:43:10.124Z,98375.33
2018-01-10T04:45:41.741Z,98376.91
2018-01-10T04:48:13.192Z,98372.12
2018-01-10T04:50:44.219Z,98368.31
2018-01-10T04:53:15.248Z,98369.66
2018-01-10T04:55:46.447Z,98376.58
2018-01-10T04:58:17.156Z,98374.84
2018-01-10T05:00:49.157Z,98372.62
2018-01-10T05:03:20.225Z,98375.37
2018-01-10T05:05:51.969Z,98374.28
2018-01-10T05:08:22.787Z,98377.27
2018-01-10T05:10:54.019Z,98377.44
2018-01-10T05:13:27.145Z,98371.38
2018-01-10T05:16:07.568Z,98370.30
2018-01-10T05:18:41.278Z,98359.73
2018-01-10T05:21:12.813Z,98360.95
2018-01-10T05:23:43.749Z,98357.13
2018-01-10T05:26:14.704Z,98362.71
2018-01-10T05:28:46.145Z,98360.62
2018-01-10T05:33:47.066Z,98369.11
2018-01-10T05:36:19.092Z,98370.28
2018-01-10T05:38:54.783Z,98375.42
2018-01-10T05:41:25.607Z,98374.00
2018-01-10T05:43:56.860Z,98370.18
2018-01-10T05:46:33.556Z,98368.41
2018-01-10T05:49:05.288Z,98361.89
2018-01-10T05:51:41.197Z,98361.55
2018-01-10T05:54:12.655Z,98362.34
2018-01-10T05:56:52.677Z,98355.39
2018-01-10T05:59:25.398Z,98363.70
2018-01-10T06:01:57.261Z,98358.88
2018-01-10T06:04:31.622Z,98363.23
2018-01-10T06:07:10.418Z,98363.42
2018-01-10T06:12:48.981Z,98364.55
2018-01-10T06:15:22.819Z,98365.41
2018-01-10T06:17:56.851Z,98365.62
2018-01-10T06:20:29.143Z,98368.53
2018-01-10T06:23:10.119Z,98368.17
2018-01-10T06:25:44.816Z,98357.06
2018-01-10T06:28:17.508Z,98361.64
2018-01-10T06:30:48.543Z,98356.25
2018-01-10T06:33:21.773Z,98346.40
2018-01-10T06:35:53.721Z,98342.63
2018-01-10T06:38:25.389Z,98339.83
2018-01-10T06:40:56.655Z,98349.16
2018-01-10T06:43:28.347Z,98345.63
2018-01-10T06:46:00.466Z,98344.63
2018-01-10T06:48:33.566Z,98345.59
2018-01-10T06:51:04.280Z,98346.80
2018-01-10T06:53:35.580Z,98348.76
2018-01-10T06:56:09.911Z,98346.07
2018-01-10T06:58:45.581Z,98342.30
2018-01-10T07:01:19.923Z,98342.09
2018-01-10T07:03:52.613Z,98357.01
2018-01-10T07:06:23.776Z,98356.22
2018-01-10T07:08:54.816Z,98361.47
2018-01-10T07:11:25.896Z,98371.54
2018-01-10T07:13:56.812Z,98376.27
2018-01-10T07:16:27.522Z,98376.27
2018-01-10T07:18:58.693Z,98367.53
2018-01-10T07:21:30.821Z,98373.38
2018-01-10T07:24:01.756Z,98378.16
2018-01-10T07:26:35.358Z,98374.88
2018-01-10T07:29:07.975Z,98370.74
2018-01-10T07:31:40.597Z,98379.11
2018-01-10T07:34:13.781Z,98373.85
2018-01-10T07:36:51.786Z,98375.91
2018-01-10T07:39:25.454Z,98374.32
2018-01-10T07:42:01.039Z,98380.83
2018-01-10T07:44:33.845Z,98380.73
2018-01-10T07:47:06.144Z,98380.89
2018-01-10T07:49:37.801Z,98384.99
2018-01-10T07:52:17.699Z,98381.20
2018-01-10T07:54:50.850Z,98384.66
2018-01-10T07:57:26.015Z,98386.97
2018-01-10T08:00:00.222Z,98386.63
2018-01-10T08:02:33.001Z,98387.00
2018-01-10T08:05:04.129Z,98388.88
2018-01-10T08:07:35.572Z,98385.52
2018-01-10T08:10:07.334Z,98386.67
2018-01-10T08:12:38.486Z,98390.77
2018-01-10T08:15:12.214Z,98387.09
2018-01-10T08:17:43.318Z,98383.36
2018-01-10T08:20:14.339Z,98388.08
2018-01-10T08:22:50.156Z,98390.60
2018-01-10T08:25:23.656Z,98391.79
2018-01-10T08:27:56.030Z,98395.69
2018-01-10T08:30:31.625Z,98394.88
2018-01-10T08:33:05.701Z,98394.08
2018-01-10T08:35:38.350Z,98391.75
2018-01-10T08:38:11.993Z,98398.33
2018-01-10T08:40:44.279Z,98405.07
2018-01-10T08:43:15.626Z,98398.67
2018-01-10T08:45:48.069Z,98400.12
2018-01-10T08:48:20.695Z,98404.28
2018-01-10T08:50:51.672Z,98404.50
2018-01-10T08:53:22.602Z,98402.16
2018-01-10T08:55:53.887Z,98396.41
2018-01-10T08:58:29.058Z,98397.52
2018-01-10T09:01:00.283Z,98391.65
2018-01-10T09:03:31.487Z,98394.13
2018-01-10T09:06:02.932Z,98391.38
2018-01-10T09:08:37.022Z,98390.65
2018-01-10T09:11:08.044Z,98390.63
2018-01-10T09:13:38.900Z,98390.92
2018-01-10T09:16:10.134Z,98393.08
2018-01-10T09:18:41.410Z,98398.70
2018-01-10T09:21:15.125Z,98391.75
2018-01-10T09:23:46.741Z,98395.81
2018-01-10T09:26:20.611Z,98391.83
2018-01-10T09:28:52.249Z,98390.88
2018-01-10T09:31:23.478Z,98396.95
2018-01-10T09:34:02.118Z,98390.92
2018-01-10T09:36:36.948Z,98395.28
2018-01-10T09:39:10.310Z,98395.14
2018-01-10T09:41:44.159Z,98399.61
2018-01-10T09:44:19.197Z,98401.70
2018-01-10T09:46:53.724Z,98398.20
2018-01-10T09:49:25.265Z,98401.02
2018-01-10T09:51:57.601Z,98399.64
2018-01-10T09:54:39.595Z,98395.16
2018-01-10T09:57:10.795Z,98388.65
2018-01-10T09:59:42.418Z,98387.66
2018-01-10T10:04:55.050Z,98385.71
2018-01-10T10:07:26.106Z,98384.83
2018-01-10T10:09:57.153Z,98384.03
2018-01-10T10:12:28.352Z,98386.49
2018-01-10T10:14:59.199Z,98382.45
2018-01-10T10:17:30.432Z,98377.81
2018-01-10T10:20:03.015Z,98378.41
2018-01-10T10:22:34.004Z,98380.08
2018-01-10T10:25:05.124Z,98373.14
2018-01-10T10:27:37.011Z,98379.34
2018-01-10T10:30:12.261Z,98371.47
2018-01-10T10:32:43.784Z,98374.61
2018-01-10T10:35:15.988Z,98366.25
2018-01-10T10:37:46.994Z,98365.05
2018-01-10T10:40:17.943Z,98360.31
2018-01-10T10:42:49.375Z,98357.80
2018-01-10T10:45:20.283Z,98353.88
2018-01-10T10:47:51.579Z,98354.41
2018-01-10T10:50:23.888Z,98346.81
2018-01-10T10:52:55.077Z,98342.50
2018-01-10T10:55:26.704Z,98341.20
2018-01-10T10:57:57.730Z,98341.94
2018-01-10T11:00:28.803Z,98337.03
2018-01-10T11:03:00.194Z,98337.20
2018-01-10T11:05:31.127Z,98335.44
2018-01-10T11:08:02.835Z,98330.83
2018-01-10T11:10:33.674Z,98333.23
2018-01-10T11:13:04.538Z,98331.45
2018-01-10T11:15:35.318Z,98332.83
2018-01-10T11:18:07.607Z,98326.86
2018-01-10T11:20:39.551Z,98326.30
2018-01-10T11:23:11.521Z,98319.63
2018-01-10T11:25:42.886Z,98317.80
2018-01-10T11:28:22.487Z,98322.59
2018-01-10T11:30:53.905Z,98313.98
2018-01-10T11:33:27.115Z,98316.47
2018-01-10T11:36:01.915Z,98310.20
2018-01-10T11:38:32.961Z,98307.18
2018-01-10T11:41:05.817Z,98309.21
2018-01-10T11:43:37.365Z,98294.00
2018-01-10T11:46:14.530Z,98294.52
2018-01-10T11:48:46.093Z,98287.98
2018-01-10T11:51:17.164Z,98286.64
2018-01-10T11:53:49.064Z,98284.38
2018-01-10T11:56:20.738Z,98286.95
2018-01-10T11:58:52.097Z,98287.15
2018-01-10T12:01:23.228Z,98288.24
2018-01-10T12:03:57.553Z,98284.38
2018-01-10T12:06:28.599Z,98277.17
2018-01-10T12:08:59.456Z,98268.91
2018-01-10T12:11:31.844Z,98265.47
2018-01-10T12:14:03.198Z,98265.26
2018-01-10T12:16:38.025Z,98269.31
2018-01-10T12:19:11.548Z,98268.03
2018-01-10T12:21:42.845Z,98266.98
2018-01-10T12:24:14.114Z,98261.88
2018-01-10T12:26:49.105Z,98259.92
2018-01-10T12:29:20.338Z,98263.27
2018-01-10T12:31:53.036Z,98257.13
2018-01-10T12:34:25.468Z,98258.02
2018-01-10T12:36:58.710Z,98249.94
2018-01-10T12:39:31.880Z,98243.50
2018-01-10T12:42:04.129Z,98232.95
2018-01-10T12:44:37.532Z,98238.05
2018-01-10T12:47:11.159Z,98231.90
2018-01-10T12:49:45.528Z,98237.41
2018-01-10T12:52:17.253Z,98236.22
2018-01-10T12:54:57.791Z,98228.13
2018-01-10T12:57:28.921Z,98233.83
2018-01-10T13:00:00.398Z,98232.39
2018-01-10T13:02:33.093Z,98228.34
2018-01-10T13:05:05.617Z,98233.39
2018-01-10T13:07:36.821Z,98236.83
2018-01-10T13:10:11.808Z,98236.62
2018-01-10T13:12:43.115Z,98234.05
2018-01-10T13:15:14.402Z,98232.78
2018-01-10T13:17:45.403Z,98231.09
2018-01-10T13:20:18.364Z,98229.99
2018-01-10T13:22:49.919Z,98228.36
2018-01-10T13:25:21.111Z,98232.08
2018-01-10T13:27:52.435Z,98225.98
2018-01-10T13:30:24.722Z,98231.58
2018-01-10T13:32:57.420Z,98229.22
2018-01-10T13:35:28.914Z,98221.26
2018-01-10T13:37:59.894Z,98229.18
2018-01-10T13:40:31.569Z,98218.58
2018-01-10T13:43:02.917Z,98219.04
2018-01-10T13:45:34.098Z,98223.61
2018-01-10T13:48:05.016Z,98224.03
2018-01-10T13:50:35.875Z,98227.20
2018-01-10T13:53:06.936Z,98230.23
2018-01-10T13:55:38.164Z,98240.09
2018-01-10T13:58:09.483Z,98237.56
2018-01-10T14:00:41.175Z,98242.32
2018-01-10T14:03:12.608Z,98245.39
2018-01-10T14:05:43.979Z,98246.33
2018-01-10T14:08:14.814Z,98252.16
2018-01-10T14:10:46.072Z,98252.61
2018-01-10T14:13:17.012Z,98255.37
2018-01-10T14:15:48.016Z,98254.48
2018-01-10T14:18:19.019Z,98256.47
2018-01-10T14:20:50.544Z,98254.47
2018-01-10T14:23:21.896Z,98259.48
2018-01-10T14:25:52.936Z,98263.89
2018-01-10T14:28:23.917Z,98265.22
2018-01-10T14:30:55.351Z,98268.37
2018-01-10T14:33:26.377Z,98265.59
2018-01-10T14:35:59.361Z,98260.28
2018-01-10T14:38:30.380Z,98262.83
2018-01-10T14:41:01.604Z,98264.34
2018-01-10T14:43:32.651Z,98265.17
2018-01-10T14:46:04.191Z,98270.02
2018-01-10T14:48:35.132Z,98266.47
2018-01-10T14:51:07.067Z,98269.64
2018-01-10T14:53:40.234Z,98275.09
2018-01-10T14:56:11.964Z,98275.62
2018-01-10T14:58:44.099Z,98272.25
2018-01-10T15:01:15.212Z,98278.64
2018-01-10T15:03:46.336Z,98270.23
2018-01-10T15:06:17.609Z,98272.56
2018-01-10T15:08:50.518Z,98271.66
2018-01-10T15:11:22.315Z,98267.89
2018-01-10T15:13:54.935Z,98273.81
2018-01-10T15:16:27.308Z,98279.27
2018-01-10T15:18:58.862Z,98273.39
2018-01-10T15:21:32.767Z,98280.61
2018-01-10T15:24:05.806Z,98286.84
2018-01-10T15:26:44.446Z,98289.67
2018-01-10T15:29:16.456Z,98286.91
2018-01-10T15:31:50.970Z,98290.88
2018-01-10T15:34:28.616Z,98290.94
2018-01-10T15:37:00.211Z,98291.66
2018-01-10T15:39:33.696Z,98296.41
2018-01-10T15:42:05.710Z,98301.38
2018-01-10T15:44:39.138Z,98300.78
2018-01-10T15:47:17.049Z,98297.69
2018-01-10T15:49:50.286Z,98297.33
2018-01-10T15:52:26.063Z,98304.19
2018-01-10T15:54:58.217Z,98302.20
2018-01-10T15:57:30.195Z,98302.88
2018-01-10T16:00:02.421Z,98304.66
2018-01-10T16:02:34.268Z,98295.67
2018-01-10T16:05:05.541Z,98298.12
2018-01-10T16:07:37.221Z,98298.84
2018-01-10T16:10:09.482Z,98302.74
2018-01-10T16:12:42.935Z,98301.84
2018-01-10T16:15:15.575Z,98299.16
2018-01-10T16:17:47.430Z,98309.25
2018-01-10T16:20:20.659Z,98311.63
2018-01-10T16:22:54.345Z,98312.42
2018-01-10T16:25:27.456Z,98313.09
2018-01-10T16:28:02.210Z,98315.97
2018-01-10T16:30:37.758Z,98314.38
2018-01-10T16:33:10.036Z,98315.77
2018-01-10T16:35:42.373Z,98314.52
2018-01-10T16:38:15.871Z,98317.84
2018-01-10T16:40:47.742Z,98321.09
2018-01-10T16:43:19.961Z,98318.58
2018-01-10T16:45:51.998Z,98322.47
2018-01-10T16:48:23.692Z,98316.23
2018-01-10T16:50:55.117Z,98325.62
2018-01-10T16:53:26.269Z,98320.49
2018-01-10T16:55:59.425Z,98318.86
2018-01-10T16:58:31.016Z,98324.95
2018-01-10T17:01:02.407Z,98321.75
2018-01-10T17:06:09.336Z,98326.84
2018-01-10T17:08:41.124Z,98317.04
2018-01-10T17:11:12.874Z,98324.27
2018-01-10T17:13:44.379Z,98322.02
2018-01-10T17:16:17.086Z,98326.88
2018-01-10T17:18:49.528Z,98325.80
2018-01-10T17:21:22.841Z,98325.62
2018-01-10T17:23:57.462Z,98328.31
2018-01-10T17:26:30.956Z,98330.28
2018-01-10T17:29:02.945Z,98329.30
2018-01-10T17:31:42.696Z,98330.34
2018-01-10T17:34:14.990Z,98328.40
2018-01-10T17:36:48.933Z,98331.28
2018-01-10T17:39:21.051Z,98325.50
2018-01-10T17:42:03.251Z,98332.86
2018-01-10T17:44:34.803Z,98332.09
2018-01-10T17:47:07.965Z,98333.95
2018-01-10T17:49:40.261Z,98339.70
2018-01-10T17:52:12.816Z,98333.33
2018-01-10T17:54:43.949Z,98334.68
2018-01-10T17:57:15.529Z,98339.94
2018-01-10T17:59:49.710Z,98337.78
2018-01-10T18:02:21.072Z,98336.09
2018-01-10T18:04:53.621Z,98347.79
2018-01-10T18:07:25.287Z,98349.78
2018-01-10T18:09:59.793Z,98352.47
2018-01-10T18:12:31.822Z,98353.48
2018-01-10T18:15:05.911Z,98360.60
2018-01-10T18:17:40.621Z,98357.02
2018-01-10T18:20:16.147Z,98355.48
2018-01-10T18:22:47.857Z,98353.29
2018-01-10T18:25:20.844Z,98352.88
2018-01-10T18:27:52.540Z,98353.16
2018-01-10T18:30:25.176Z,98345.67
2018-01-10T18:33:00.955Z,98345.03
2018-01-10T18:35:33.467Z,98348.38
2018-01-10T18:38:06.954Z,98343.47
2018-01-10T18:40:39.203Z,98345.12
2018-01-10T18:43:10.677Z,98345.45
2018-01-10T18:45:45.071Z,98349.84
2018-01-10T18:48:17.165Z,98360.02
2018-01-10T18:50:51.469Z,98359.47
2018-01-10T18:53:25.413Z,98359.69
2018-01-10T18:55:59.521Z,98363.02
2018-01-10T18:58:35.413Z,98365.34
2018-01-10T19:01:14.526Z,98360.89
2018-01-10T19:03:48.541Z,98360.86
2018-01-10T19:06:23.538Z,98356.27
2018-01-10T19:08:58.800Z,98349.28
2018-01-10T19:11:30.923Z,98358.78
2018-01-10T19:14:06.047Z,98355.67
2018-01-10T19:16:38.468Z,98343.81
2018-01-10T19:19:11.128Z,98343.56
2018-01-10T19:21:44.837Z,98336.96
2018-01-10T19:24:20.033Z,98340.61
2018-01-10T19:26:56.853Z,98339.34
2018-01-10T19:29:29.337Z,98340.23
2018-01-10T19:32:01.796Z,98346.47
2018-01-10T19:34:35.550Z,98345.14
2018-01-10T19:37:08.655Z,98351.48
2018-01-10T19:39:40.142Z,98356.42
2018-01-10T19:42:13.452Z,98359.63
2018-01-10T19:44:46.759Z,98356.83
2018-01-10T19:47:18.777Z,98365.35
2018-01-10T19:51:15.565Z,98352.49
2018-01-10T19:53:47.966Z,98349.84
2018-01-10T19:56:19.596Z,98351.47
2018-01-10T19:58:53.750Z,98357.75
2018-01-10T20:01:26.280Z,98358.70
2018-01-10T20:03:58.443Z,98349.48
2018-01-10T20:09:10.087Z,98349.38
2018-01-10T20:11:42.696Z,98347.13
2018-01-10T20:14:16.221Z,98353.53
2018-01-10T20:16:49.660Z,98358.79
2018-01-10T20:19:24.079Z,98355.65
2018-01-10T20:21:57.091Z,98359.05
2018-01-10T20:24:32.286Z,98360.34
2018-01-10T20:27:04.747Z,98362.19
2018-01-10T20:29:38.511Z,98364.13
2018-01-10T20:32:12.248Z,98367.39
2018-01-10T20:34:45.303Z,98367.83
2018-01-10T20:37:22.937Z,98369.27
2018-01-10T20:40:00.990Z,98367.66
2018-01-10T20:42:37.571Z,98367.92
2018-01-10T20:45:10.673Z,98374.53
2018-01-10T20:47:45.783Z,98374.27
2018-01-10T20:50:19.090Z,98371.17
2018-01-10T20:52:52.352Z,98372.66
2018-01-10T20:55:25.494Z,98372.53
2018-01-10T20:57:57.552Z,98374.64
2018-01-10T21:00:28.818Z,98375.11
2018-01-10T21:03:03.016Z,98381.91
2018-01-10T21:05:36.306Z,98375.11
2018-01-10T21:08:09.159Z,98377.11
2018-01-10T21:10:41.466Z,98376.64
2018-01-10T21:13:12.830Z,98379.99
2018-01-10T21:15:44.767Z,98378.01
2018-01-10T21:18:15.648Z,98384.72
2018-01-10T21:20:48.020Z,98385.98
2018-01-10T21:23:21.940Z,98382.27
2018-01-10T21:25:54.242Z,98385.09
2018-01-10T21:28:26.688Z,98389.18
2018-01-10T21:33:43.818Z,98384.93
2018-01-10T21:36:16.715Z,98385.78
2018-01-10T21:38:48.198Z,98387.91
2018-01-10T21:41:19.727Z,98389.87
2018-01-10T21:43:51.993Z,98387.89
2018-01-10T21:46:25.370Z,98383.41
2018-01-10T21:48:56.898Z,98382.00
2018-01-10T21:51:29.461Z,98382.69
2018-01-10T21:54:01.794Z,98386.62
2018-01-10T21:56:33.310Z,98383.52
2018-01-10T21:59:06.059Z,98385.87
2018-01-10T22:01:37.959Z,98384.95
2018-01-10T22:04:10.683Z,98391.93
2018-01-10T22:06:42.523Z,98390.70
2018-01-10T22:09:15.401Z,98394.02
2018-01-10T22:11:47.065Z,98392.89
2018-01-10T22:14:18.071Z,98385.41
2018-01-10T22:16:49.946Z,98394.50
2018-01-10T22:19:23.544Z,98395.30
2018-01-10T22:21:55.020Z,98395.24
2018-01-10T22:24:26.971Z,98391.66
2018-01-10T22:26:58.947Z,98392.94
2018-01-10T22:29:29.953Z,98395.72
2018-01-10T22:32:01.284Z,98384.66
2018-01-10T22:34:32.827Z,98392.95
2018-01-10T22:37:04.502Z,98395.60
2018-01-10T22:39:35.776Z,98392.47
2018-01-10T22:42:10.128Z,98395.16
2018-01-10T22:44:42.553Z,98393.98
2018-01-10T22:47:14.935Z,98388.42
2018-01-10T22:49:46.029Z,98375.91
2018-01-10T22:52:17.028Z,98379.89
2018-01-10T22:54:49.072Z,98377.74
2018-01-10T22:57:20.047Z,98377.55
2018-01-10T22:59:51.875Z,98375.09
2018-01-10T23:02:24.717Z,98376.67
2018-01-10T23:04:57.388Z,98377.27
2018-01-10T23:07:29.096Z,98380.36
2018-01-10T23:10:02.500Z,98378.32
2018-01-10T23:12:35.052Z,98373.94
2018-01-10T23:15:05.869Z,98372.39
2018-01-10T23:17:39.205Z,98371.45
2018-01-10T23:20:12.041Z,98374.77
2018-01-10T23:22:42.972Z,98371.77
2018-01-10T23:25:14.777Z,98369.31
2018-01-10T23:27:45.969Z,98375.59
2018-01-10T23:30:16.989Z,98369.44
2018-01-10T23:32:49.354Z,98375.11
2018-01-10T23:35:20.088Z,98378.37
2018-01-10T23:37:51.180Z,98380.72
2018-01-10T23:40:22.595Z,98378.27
2018-01-10T23:42:54.568Z,98385.48
2018-01-10T23:45:27.572Z,98389.84
2018-01-10T23:47:58.827Z,98386.08
2018-01-10T23:50:30.177Z,98389.11
2018-01-10T23:53:01.613Z,98394.74
2018-01-10T23:55:32.511Z,98396.39
2018-01-10T23:58:03.751Z,98392.56
